MQC9206 HKMO-FMCH
Flight info
| Callsign | MQC9206 |
|---|---|
| Flight time | N/A |
| Altitude | 32000 |
| Route | IMSIS2A UVUKO UL431 EGPET/N0478F310 UT913 KINAN DCT VABIT |
| Aircraft | A306/H-SDE3FGHIRWY/LB1 |
Departure
| Time | 2026-04-28 08:20 |
|---|---|
| Airport | Moi International Airport (HKMO) |
Arrival
| Time | N/A |
|---|---|
| Airport | Prince Said Ibrahim International Airport (FMCH) |
| Time | Latitude | Longitude | Altitude | Speed | Heading |
|---|---|---|---|---|---|
| 2026-04-28 07:49 | -4.02972 | 39.60114 | 211 ft | 0 kts | 209° |
| 2026-04-28 08:10 | -4.02988 | 39.60105 | 211 ft | 7 kts | 209° |
| 2026-04-28 08:10 | -4.03016 | 39.60050 | 214 ft | 12 kts | 284° |
| 2026-04-28 08:10 | -4.02982 | 39.59988 | 212 ft | 9 kts | 300° |
| 2026-04-28 08:10 | -4.02932 | 39.59948 | 216 ft | 12 kts | 5° |
| 2026-04-28 08:11 | -4.02823 | 39.60000 | 216 ft | 23 kts | 29° |
| 2026-04-28 08:11 | -4.02663 | 39.60090 | 216 ft | 27 kts | 30° |
| 2026-04-28 08:11 | -4.02505 | 39.60178 | 220 ft | 25 kts | 30° |
| 2026-04-28 08:11 | -4.02359 | 39.60261 | 218 ft | 23 kts | 29° |
| 2026-04-28 08:12 | -4.02223 | 39.60336 | 213 ft | 22 kts | 30° |
| 2026-04-28 08:12 | -4.02097 | 39.60406 | 219 ft | 20 kts | 28° |
| 2026-04-28 08:12 | -4.01977 | 39.60471 | 219 ft | 19 kts | 28° |
| 2026-04-28 08:12 | -4.01866 | 39.60533 | 218 ft | 18 kts | 30° |
| 2026-04-28 08:13 | -4.01764 | 39.60593 | 215 ft | 16 kts | 28° |
| 2026-04-28 08:13 | -4.01671 | 39.60645 | 220 ft | 15 kts | 29° |
| 2026-04-28 08:13 | -4.01586 | 39.60692 | 215 ft | 13 kts | 29° |
| 2026-04-28 08:13 | -4.01500 | 39.60729 | 216 ft | 16 kts | 15° |
| 2026-04-28 08:14 | -4.01411 | 39.60727 | 218 ft | 0 kts | 341° |
| 2026-04-28 08:16 | -4.01397 | 39.60722 | 211 ft | 7 kts | 341° |
| 2026-04-28 08:16 | -4.01337 | 39.60678 | 219 ft | 12 kts | 304° |
| 2026-04-28 08:16 | -4.01345 | 39.60624 | 220 ft | 5 kts | 207° |
| 2026-04-28 08:17 | -4.01392 | 39.60598 | 221 ft | 13 kts | 210° |
| 2026-04-28 08:17 | -4.01439 | 39.60572 | 211 ft | 0 kts | 209° |
| 2026-04-28 08:18 | -4.01446 | 39.60567 | 211 ft | 7 kts | 209° |
| 2026-04-28 08:19 | -4.01656 | 39.60449 | 217 ft | 66 kts | 208° |
| 2026-04-28 08:19 | -4.02237 | 39.60125 | 221 ft | 124 kts | 208° |
| 2026-04-28 08:19 | -4.03143 | 39.59616 | 255 ft | 170 kts | 213° |
| 2026-04-28 08:19 | -4.04203 | 39.58973 | 792 ft | 188 kts | 209° |
| 2026-04-28 08:20 | -4.05398 | 39.58307 | 1469 ft | 205 kts | 207° |
| 2026-04-28 08:20 | -4.06708 | 39.57601 | 1807 ft | 228 kts | 207° |
| 2026-04-28 08:20 | -4.08161 | 39.56806 | 2060 ft | 248 kts | 208° |
| 2026-04-28 08:20 | -4.09697 | 39.55956 | 2731 ft | 253 kts | 208° |
| 2026-04-28 08:21 | -4.11238 | 39.55097 | 3627 ft | 252 kts | 208° |
| 2026-04-28 08:21 | -4.12777 | 39.54237 | 4460 ft | 255 kts | 208° |